createdAt,value
2023-02-27T00:01:47.712Z,100940.40
2023-02-27T00:04:20.939Z,100948.00
2023-02-27T00:06:54.731Z,100949.80
2023-02-27T00:09:28.486Z,100944.40
2023-02-27T00:12:01.793Z,100947.40
2023-02-27T00:14:34.869Z,100944.60
2023-02-27T00:17:08.269Z,100938.80
2023-02-27T00:19:41.333Z,100949.00
2023-02-27T00:22:14.414Z,100944.60
2023-02-27T00:24:47.390Z,100950.40
2023-02-27T00:27:20.431Z,100952.20
2023-02-27T00:29:53.415Z,100946.80
2023-02-27T00:32:26.681Z,100948.60
2023-02-27T00:34:59.690Z,100951.40
2023-02-27T00:37:32.808Z,100951.00
2023-02-27T00:40:06.739Z,100951.00
2023-02-27T00:42:40.212Z,100950.80
2023-02-27T00:45:14.981Z,100950.60
2023-02-27T00:47:48.231Z,100951.20
2023-02-27T00:50:21.753Z,100947.60
2023-02-27T00:52:54.813Z,100953.80
2023-02-27T00:55:27.957Z,100949.40
2023-02-27T00:58:01.039Z,100946.00
2023-02-27T01:00:34.198Z,100950.20
2023-02-27T01:03:07.530Z,100948.20
2023-02-27T01:05:40.855Z,100943.80
2023-02-27T01:08:14.596Z,100941.00
2023-02-27T01:10:47.840Z,100933.40
2023-02-27T01:13:20.881Z,100935.80
2023-02-27T01:15:54.206Z,100936.00
2023-02-27T01:18:27.336Z,100934.80
2023-02-27T01:21:01.824Z,100940.80
2023-02-27T01:23:34.973Z,100937.60
2023-02-27T01:26:08.338Z,100939.60
2023-02-27T01:28:41.497Z,100936.00
2023-02-27T01:31:15.102Z,100936.20
2023-02-27T01:33:49.264Z,100938.00
2023-02-27T01:36:22.491Z,100939.20
2023-02-27T01:38:55.578Z,100938.60
2023-02-27T01:41:30.042Z,100944.60
2023-02-27T01:44:06.602Z,100944.80
2023-02-27T01:46:40.449Z,100945.60
2023-02-27T01:49:19.127Z,100946.20
2023-02-27T01:52:02.099Z,100943.80
2023-02-27T01:54:38.105Z,100950.60
2023-02-27T01:57:11.806Z,100952.00
2023-02-27T01:59:45.921Z,100949.80
2023-02-27T02:02:25.615Z,100952.20
2023-02-27T02:05:00.454Z,100953.60
2023-02-27T02:07:34.877Z,100962.60
2023-02-27T02:10:09.876Z,100963.80
2023-02-27T02:12:44.296Z,100963.00
2023-02-27T02:15:18.348Z,100956.80
2023-02-27T02:18:03.389Z,100955.00
2023-02-27T02:21:33.889Z,100956.00
2023-02-27T02:25:18.005Z,100959.20
2023-02-27T02:28:18.659Z,100959.80
2023-02-27T02:31:29.493Z,100960.20
2023-02-27T02:34:34.893Z,100958.40
2023-02-27T02:37:46.098Z,100962.80
2023-02-27T02:40:33.439Z,100967.20
2023-02-27T02:43:13.178Z,100966.60
2023-02-27T02:45:56.030Z,100973.00
2023-02-27T02:48:37.703Z,100975.80
2023-02-27T02:51:20.088Z,100976.60
2023-02-27T02:54:01.826Z,100981.40
2023-02-27T02:56:40.996Z,100981.40
2023-02-27T02:59:19.608Z,100986.60
2023-02-27T03:01:58.416Z,100989.60
2023-02-27T03:04:41.064Z,100991.20
2023-02-27T03:07:22.796Z,101002.60
2023-02-27T03:10:05.337Z,101002.20
2023-02-27T03:12:41.296Z,101001.20
2023-02-27T03:15:19.776Z,101007.80
2023-02-27T03:18:01.864Z,101011.20
2023-02-27T03:20:39.956Z,101015.60
2023-02-27T03:23:19.341Z,101010.20
2023-02-27T03:25:56.612Z,101016.00
2023-02-27T03:28:37.111Z,101017.60
2023-02-27T03:31:15.595Z,101017.40
2023-02-27T03:33:55.154Z,101025.80
2023-02-27T03:36:45.389Z,101024.40
2023-02-27T03:39:32.777Z,101026.00
2023-02-27T03:42:16.397Z,101025.80
2023-02-27T03:45:21.640Z,101025.20
2023-02-27T03:47:55.278Z,101022.00
2023-02-27T03:50:28.521Z,101022.40
2023-02-27T03:53:02.281Z,101027.00
2023-02-27T03:55:41.419Z,101032.60
2023-02-27T03:58:14.685Z,101035.40
2023-02-27T04:00:47.908Z,101035.20
2023-02-27T04:03:21.494Z,101039.20
2023-02-27T04:05:55.357Z,101044.80
2023-02-27T04:08:57.628Z,101045.20
2023-02-27T04:11:52.828Z,101048.80
2023-02-27T04:14:46.514Z,101052.00
2023-02-27T04:17:25.915Z,101050.40
2023-02-27T04:20:31.361Z,101056.80
2023-02-27T04:23:07.914Z,101059.20
2023-02-27T04:25:56.107Z,101056.60
2023-02-27T04:28:41.856Z,101057.00
2023-02-27T04:31:20.183Z,101061.80
2023-02-27T04:34:00.408Z,101058.60
2023-02-27T04:36:39.236Z,101061.40
2023-02-27T04:39:21.234Z,101062.40
2023-02-27T04:41:59.925Z,101061.60
2023-02-27T04:44:36.274Z,101056.40
2023-02-27T04:47:12.738Z,101052.80
2023-02-27T04:49:51.752Z,101059.40
2023-02-27T04:52:29.499Z,101059.60
2023-02-27T04:55:11.362Z,101063.60
2023-02-27T04:57:51.314Z,101065.20
2023-02-27T05:00:27.419Z,101068.40
2023-02-27T05:03:11.176Z,101069.80
2023-02-27T05:05:47.591Z,101074.80
2023-02-27T05:08:27.890Z,101070.40
2023-02-27T05:11:09.445Z,101079.20
2023-02-27T05:13:48.234Z,101078.40
2023-02-27T05:16:28.214Z,101079.80
2023-02-27T05:19:03.176Z,101087.00
2023-02-27T05:21:42.547Z,101082.00
2023-02-27T05:24:25.343Z,101081.20
2023-02-27T05:27:21.525Z,101083.00
2023-02-27T05:29:57.750Z,101086.80
2023-02-27T05:32:41.047Z,101091.20
2023-02-27T05:35:27.340Z,101087.40
2023-02-27T05:38:10.882Z,101088.00
2023-02-27T05:40:48.297Z,101090.60
2023-02-27T05:43:27.619Z,101099.80
2023-02-27T05:46:06.757Z,101101.80
2023-02-27T05:48:44.742Z,101105.00
2023-02-27T05:51:20.997Z,101106.20
2023-02-27T05:53:59.731Z,101110.80
2023-02-27T05:56:35.036Z,101111.80
2023-02-27T05:59:12.965Z,101115.40
2023-02-27T06:01:46.578Z,101112.00
2023-02-27T06:04:19.823Z,101116.40
2023-02-27T06:06:53.192Z,101122.00
2023-02-27T06:09:26.269Z,101125.40
2023-02-27T06:12:00.380Z,101122.80
2023-02-27T06:14:33.489Z,101120.00
2023-02-27T06:17:07.167Z,101119.40
2023-02-27T06:19:40.250Z,101124.40
2023-02-27T06:22:13.772Z,101124.20
2023-02-27T06:24:46.943Z,101124.80
2023-02-27T06:27:20.108Z,101127.60
2023-02-27T06:29:53.761Z,101126.80
2023-02-27T06:32:27.069Z,101130.60
2023-02-27T06:35:00.241Z,101127.40
2023-02-27T06:37:33.332Z,101130.80
2023-02-27T06:40:11.668Z,101129.80
2023-02-27T06:42:46.021Z,101126.40
2023-02-27T06:45:20.013Z,101129.20
2023-02-27T06:47:53.272Z,101141.60
2023-02-27T06:50:26.403Z,101144.80
2023-02-27T06:52:59.645Z,101145.60
2023-02-27T06:55:32.722Z,101141.80
2023-02-27T06:58:06.132Z,101148.00
2023-02-27T07:00:39.326Z,101154.40
2023-02-27T07:03:13.644Z,101154.40
2023-02-27T07:05:46.863Z,101159.80
2023-02-27T07:08:20.068Z,101161.00
2023-02-27T07:10:53.423Z,101165.40
2023-02-27T07:13:26.574Z,101163.20
2023-02-27T07:15:59.605Z,101165.60
2023-02-27T07:18:32.660Z,101168.20
2023-02-27T07:21:05.882Z,101168.80
2023-02-27T07:23:39.020Z,101168.80
2023-02-27T07:26:12.281Z,101171.00
2023-02-27T07:28:45.499Z,101172.00
2023-02-27T07:31:19.092Z,101178.60
2023-02-27T07:33:52.215Z,101177.40
2023-02-27T07:36:26.061Z,101175.80
2023-02-27T07:38:59.609Z,101180.80
2023-02-27T07:41:32.694Z,101186.20
2023-02-27T07:44:08.803Z,101187.80
2023-02-27T07:46:41.949Z,101187.20
2023-02-27T07:49:15.990Z,101191.60
2023-02-27T07:51:49.287Z,101187.40
2023-02-27T07:54:22.666Z,101184.40
2023-02-27T07:56:55.703Z,101193.40
2023-02-27T07:59:28.914Z,101193.80
2023-02-27T08:02:02.023Z,101191.40
2023-02-27T08:04:35.180Z,101198.60
2023-02-27T08:07:08.682Z,101193.60
2023-02-27T08:09:41.729Z,101196.20
2023-02-27T08:12:14.766Z,101193.40
2023-02-27T08:14:47.853Z,101195.20
2023-02-27T08:17:21.199Z,101191.60
2023-02-27T08:19:54.319Z,101194.60
2023-02-27T08:22:27.352Z,101192.40
2023-02-27T08:25:01.335Z,101193.80
2023-02-27T08:27:34.461Z,101199.20
2023-02-27T08:30:10.467Z,101199.00
2023-02-27T08:32:44.008Z,101204.20
2023-02-27T08:35:17.621Z,101203.40
2023-02-27T08:37:50.846Z,101206.80
2023-02-27T08:40:25.731Z,101206.80
2023-02-27T08:42:58.805Z,101207.00
2023-02-27T08:45:31.998Z,101213.60
2023-02-27T08:48:05.237Z,101211.20
2023-02-27T08:50:38.402Z,101207.60
2023-02-27T08:53:12.012Z,101209.60
2023-02-27T08:55:45.136Z,101206.80
2023-02-27T08:58:18.442Z,101215.80
2023-02-27T09:00:51.612Z,101212.80
2023-02-27T09:03:28.869Z,101212.20
2023-02-27T09:06:02.127Z,101212.60
2023-02-27T09:08:35.265Z,101206.40
2023-02-27T09:11:08.967Z,101208.80
2023-02-27T09:13:42.091Z,101213.60
2023-02-27T09:16:15.154Z,101216.60
2023-02-27T09:18:48.550Z,101219.80
2023-02-27T09:21:22.820Z,101222.60
2023-02-27T09:24:02.487Z,101227.60
2023-02-27T09:26:45.896Z,101228.60
2023-02-27T09:29:19.612Z,101230.80
2023-02-27T09:31:53.547Z,101223.00
2023-02-27T09:34:27.056Z,101234.20
2023-02-27T09:37:03.272Z,101233.60
2023-02-27T09:39:36.472Z,101234.00
2023-02-27T09:42:17.313Z,101232.40
2023-02-27T09:44:53.414Z,101230.80
2023-02-27T09:47:35.031Z,101241.40
2023-02-27T09:50:20.722Z,101241.00
2023-02-27T09:52:53.887Z,101234.80
2023-02-27T09:55:31.508Z,101227.20
2023-02-27T09:58:09.411Z,101236.80
2023-02-27T10:01:07.492Z,101241.20
2023-02-27T10:04:02.682Z,101239.40
2023-02-27T10:06:43.727Z,101237.80
2023-02-27T10:09:35.722Z,101239.60
2023-02-27T10:12:36.228Z,101246.20
2023-02-27T10:15:17.858Z,101248.40
2023-02-27T10:17:54.499Z,101246.80
2023-02-27T10:20:32.496Z,101247.40
2023-02-27T10:23:13.038Z,101248.60
2023-02-27T10:25:49.533Z,101246.40
2023-02-27T10:28:25.394Z,101249.80
2023-02-27T10:31:01.327Z,101249.40
2023-02-27T10:33:39.850Z,101248.80
2023-02-27T10:36:30.629Z,101243.60
2023-02-27T10:39:10.227Z,101245.40
2023-02-27T10:41:44.616Z,101241.00
2023-02-27T10:44:20.585Z,101246.60
2023-02-27T10:46:53.833Z,101240.60
2023-02-27T10:49:30.229Z,101239.60
2023-02-27T10:52:14.455Z,101239.80
2023-02-27T10:54:48.513Z,101241.80
2023-02-27T10:57:34.494Z,101246.60
2023-02-27T11:00:24.645Z,101245.00
2023-02-27T11:02:58.754Z,101245.60
2023-02-27T11:05:34.441Z,101246.00
2023-02-27T11:08:24.933Z,101239.40
2023-02-27T11:11:04.588Z,101236.40
2023-02-27T11:13:40.412Z,101241.80
2023-02-27T11:16:17.709Z,101237.60
2023-02-27T11:18:54.501Z,101232.40
2023-02-27T11:21:31.116Z,101230.20
2023-02-27T11:24:08.204Z,101225.40
2023-02-27T11:26:55.361Z,101232.60
2023-02-27T11:29:29.177Z,101226.80
2023-02-27T11:32:06.494Z,101225.60
2023-02-27T11:34:47.843Z,101219.00
2023-02-27T11:37:32.211Z,101225.40
2023-02-27T11:40:19.272Z,101225.20
2023-02-27T11:42:56.662Z,101221.60
2023-02-27T11:46:10.753Z,101221.80
2023-02-27T11:48:37.709Z,101226.40
2023-02-27T11:51:52.221Z,101224.20
2023-02-27T11:54:37.547Z,101232.00
2023-02-27T11:57:25.098Z,101233.00
2023-02-27T12:00:06.676Z,101234.60
2023-02-27T12:02:55.447Z,101232.40
2023-02-27T12:05:32.345Z,101238.80
2023-02-27T12:08:13.226Z,101236.20
2023-02-27T12:11:07.747Z,101235.20
2023-02-27T12:13:50.938Z,101236.80
2023-02-27T12:16:33.110Z,101243.40
2023-02-27T12:19:17.312Z,101244.60
2023-02-27T12:21:54.574Z,101246.80
2023-02-27T12:24:33.614Z,101246.20
2023-02-27T12:27:18.700Z,101241.80
2023-02-27T12:29:56.329Z,101242.60
2023-02-27T12:32:39.584Z,101248.00
2023-02-27T12:35:21.434Z,101249.40
2023-02-27T12:37:55.136Z,101250.20
2023-02-27T12:40:37.794Z,101252.40
2023-02-27T12:43:29.368Z,101250.00
2023-02-27T12:46:25.550Z,101256.80
2023-02-27T12:49:17.247Z,101252.00
2023-02-27T12:52:05.266Z,101259.00
2023-02-27T12:54:58.258Z,101248.80
2023-02-27T12:57:47.933Z,101252.60
2023-02-27T13:00:26.656Z,101246.80
2023-02-27T13:03:13.261Z,101254.20
2023-02-27T13:05:59.313Z,101248.40
2023-02-27T13:09:03.670Z,101251.60
2023-02-27T13:11:53.161Z,101251.20
2023-02-27T13:14:40.758Z,101254.20
2023-02-27T13:17:24.129Z,101257.00
2023-02-27T13:20:02.613Z,101264.80
2023-02-27T13:22:45.028Z,101266.40
2023-02-27T13:25:21.016Z,101262.60
2023-02-27T13:28:00.433Z,101266.80
2023-02-27T13:30:37.906Z,101262.80
2023-02-27T13:33:26.412Z,101266.40
2023-02-27T13:36:19.132Z,101267.20
2023-02-27T13:38:54.309Z,101268.00
2023-02-27T13:41:43.027Z,101271.20
2023-02-27T13:44:44.566Z,101273.60
2023-02-27T13:47:48.925Z,101272.80
2023-02-27T13:50:55.056Z,101270.60
2023-02-27T13:53:29.282Z,101275.00
2023-02-27T13:56:22.176Z,101273.60
2023-02-27T13:58:57.870Z,101276.20
2023-02-27T14:01:35.255Z,101285.00
2023-02-27T14:04:19.036Z,101276.80
2023-02-27T14:06:52.596Z,101288.00
2023-02-27T14:09:26.225Z,101285.20
2023-02-27T14:12:03.845Z,101290.00
2023-02-27T14:14:50.969Z,101293.60
2023-02-27T14:17:49.582Z,101294.00
2023-02-27T14:20:54.442Z,101294.00
2023-02-27T14:23:29.418Z,101299.20
2023-02-27T14:26:07.427Z,101302.40
2023-02-27T14:28:49.146Z,101302.20
2023-02-27T14:31:29.561Z,101308.20
2023-02-27T14:34:06.032Z,101307.00
2023-02-27T14:36:47.598Z,101311.00
2023-02-27T14:39:28.176Z,101309.20
2023-02-27T14:42:20.460Z,101312.20
2023-02-27T14:44:54.271Z,101309.20
2023-02-27T14:47:34.723Z,101311.00
2023-02-27T14:50:09.726Z,101313.80
2023-02-27T14:52:47.479Z,101315.00
2023-02-27T14:55:28.283Z,101317.00
2023-02-27T14:58:11.080Z,101315.60
2023-02-27T15:00:50.716Z,101321.80
2023-02-27T15:03:26.638Z,101327.00
2023-02-27T15:06:03.985Z,101327.80
2023-02-27T15:08:42.540Z,101334.20
2023-02-27T15:11:21.104Z,101333.20
2023-02-27T15:14:00.223Z,101335.40
2023-02-27T15:16:40.656Z,101345.20
2023-02-27T15:19:23.178Z,101347.80
2023-02-27T15:21:59.974Z,101348.60
2023-02-27T15:24:49.323Z,101349.40
2023-02-27T15:27:26.793Z,101346.40
2023-02-27T15:30:01.953Z,101356.00
2023-02-27T15:32:37.692Z,101359.20
2023-02-27T15:35:20.617Z,101362.20
2023-02-27T15:37:57.798Z,101358.60
2023-02-27T15:40:34.168Z,101363.40
2023-02-27T15:43:08.993Z,101364.40
2023-02-27T15:45:43.376Z,101370.60
2023-02-27T15:48:18.905Z,101369.00
2023-02-27T15:50:56.340Z,101375.00
2023-02-27T15:53:34.301Z,101377.60
2023-02-27T15:56:14.270Z,101380.60
2023-02-27T15:58:54.673Z,101378.80
2023-02-27T16:01:30.879Z,101382.40
2023-02-27T16:04:07.256Z,101386.40
2023-02-27T16:06:42.475Z,101390.20
2023-02-27T16:09:28.864Z,101390.20
2023-02-27T16:12:34.903Z,101396.60
2023-02-27T16:15:34.910Z,101400.00
2023-02-27T16:18:29.653Z,101409.20
2023-02-27T16:21:15.813Z,101410.80
2023-02-27T16:23:50.084Z,101410.00
2023-02-27T16:26:31.905Z,101401.20
2023-02-27T16:29:08.485Z,101403.60
2023-02-27T16:31:47.638Z,101411.00
2023-02-27T16:34:44.264Z,101411.80
2023-02-27T16:37:27.705Z,101417.40
2023-02-27T16:40:02.296Z,101415.00
2023-02-27T16:42:35.467Z,101418.80
2023-02-27T16:45:17.811Z,101422.80
2023-02-27T16:47:53.855Z,101421.00
2023-02-27T16:50:32.646Z,101428.60
2023-02-27T16:53:05.865Z,101428.60
2023-02-27T16:55:44.032Z,101433.00
2023-02-27T16:58:19.112Z,101435.20
2023-02-27T17:00:52.280Z,101435.80
2023-02-27T17:03:25.426Z,101438.40
2023-02-27T17:05:59.121Z,101435.40
2023-02-27T17:08:32.691Z,101442.00
2023-02-27T17:11:06.418Z,101441.00
2023-02-27T17:13:41.330Z,101442.20
2023-02-27T17:16:15.703Z,101442.40
2023-02-27T17:18:48.961Z,101439.60
2023-02-27T17:21:22.089Z,101443.80
2023-02-27T17:23:55.276Z,101450.60
2023-02-27T17:26:29.083Z,101452.40
2023-02-27T17:29:02.926Z,101449.00
2023-02-27T17:31:36.361Z,101448.80
2023-02-27T17:34:10.129Z,101450.40
2023-02-27T17:36:43.260Z,101456.40
2023-02-27T17:39:17.700Z,101455.20
2023-02-27T17:41:53.160Z,101460.00
2023-02-27T17:44:27.193Z,101458.20
2023-02-27T17:47:00.423Z,101460.20
2023-02-27T17:49:33.634Z,101453.20
2023-02-27T17:52:08.151Z,101461.00
2023-02-27T17:54:41.523Z,101462.80
2023-02-27T17:57:14.750Z,101461.40
2023-02-27T17:59:47.972Z,101466.60
2023-02-27T18:02:21.029Z,101468.00
2023-02-27T18:04:54.741Z,101472.60
2023-02-27T18:07:27.872Z,101471.00
2023-02-27T18:10:01.605Z,101470.40
2023-02-27T18:12:34.841Z,101469.00
2023-02-27T18:15:10.276Z,101474.80
2023-02-27T18:17:44.527Z,101474.20
2023-02-27T18:20:18.568Z,101475.00
2023-02-27T18:22:51.806Z,101477.60
2023-02-27T18:25:25.087Z,101478.00
2023-02-27T18:28:01.455Z,101485.80
2023-02-27T18:30:38.581Z,101487.80
2023-02-27T18:33:12.720Z,101486.60
2023-02-27T18:35:46.034Z,101483.20
2023-02-27T18:38:19.430Z,101482.60
2023-02-27T18:40:52.723Z,101484.40
2023-02-27T18:43:27.111Z,101484.60
2023-02-27T18:46:00.738Z,101493.60
2023-02-27T18:48:34.037Z,101492.00
2023-02-27T18:51:12.401Z,101498.80
2023-02-27T18:53:48.876Z,101504.60
2023-02-27T18:56:25.024Z,101503.80
2023-02-27T18:59:05.424Z,101501.00
2023-02-27T19:01:38.564Z,101511.00
2023-02-27T19:04:12.204Z,101513.20
2023-02-27T19:06:45.949Z,101514.80
2023-02-27T19:09:21.918Z,101514.00
2023-02-27T19:11:55.223Z,101517.80
2023-02-27T19:14:28.753Z,101513.00
2023-02-27T19:17:01.879Z,101517.00
2023-02-27T19:19:35.619Z,101522.60
2023-02-27T19:22:09.006Z,101525.40
2023-02-27T19:24:42.322Z,101524.40
2023-02-27T19:27:17.337Z,101526.20
2023-02-27T19:29:50.574Z,101530.20
2023-02-27T19:32:24.404Z,101531.40
2023-02-27T19:34:57.745Z,101533.40
2023-02-27T19:37:30.917Z,101535.00
2023-02-27T19:40:04.262Z,101530.20
2023-02-27T19:42:37.580Z,101533.00
2023-02-27T19:45:12.721Z,101530.20
2023-02-27T19:47:46.833Z,101531.40
2023-02-27T19:50:20.781Z,101531.00
2023-02-27T19:52:53.957Z,101533.60
2023-02-27T19:55:27.861Z,101535.20
2023-02-27T19:58:01.740Z,101533.60
2023-02-27T20:00:35.026Z,101537.20
2023-02-27T20:03:08.361Z,101543.80
2023-02-27T20:05:45.679Z,101545.40
2023-02-27T20:08:19.169Z,101541.40
2023-02-27T20:11:00.669Z,101542.00
2023-02-27T20:13:34.551Z,101545.40
2023-02-27T20:16:11.572Z,101554.00
2023-02-27T20:18:45.260Z,101551.00
2023-02-27T20:21:21.574Z,101555.80
2023-02-27T20:23:56.001Z,101557.00
2023-02-27T20:26:32.310Z,101554.20
2023-02-27T20:29:10.033Z,101561.20
2023-02-27T20:31:46.558Z,101565.20
2023-02-27T20:34:22.643Z,101562.80
2023-02-27T20:36:57.798Z,101564.40
2023-02-27T20:39:31.234Z,101558.40
2023-02-27T20:42:04.684Z,101556.40
2023-02-27T20:44:38.385Z,101563.00
2023-02-27T20:47:12.097Z,101562.80
2023-02-27T20:49:45.288Z,101565.60
2023-02-27T20:52:18.542Z,101563.80
2023-02-27T20:54:51.712Z,101562.20
2023-02-27T20:57:25.066Z,101562.20
2023-02-27T20:59:58.241Z,101554.80
2023-02-27T21:02:31.459Z,101555.80
2023-02-27T21:05:04.911Z,101562.80
2023-02-27T21:07:38.090Z,101563.80
2023-02-27T21:10:13.655Z,101567.00
2023-02-27T21:12:46.724Z,101566.00
2023-02-27T21:15:20.324Z,101571.20
2023-02-27T21:17:53.454Z,101572.80
2023-02-27T21:20:26.867Z,101573.40
2023-02-27T21:22:59.960Z,101574.20
2023-02-27T21:25:33.192Z,101578.60
2023-02-27T21:28:07.264Z,101579.40
2023-02-27T21:30:40.736Z,101577.80
2023-02-27T21:33:14.008Z,101574.60
2023-02-27T21:35:51.236Z,101578.60
2023-02-27T21:38:24.688Z,101578.80
2023-02-27T21:40:59.470Z,101585.00
2023-02-27T21:43:32.640Z,101582.20
2023-02-27T21:46:11.308Z,101582.00
2023-02-27T21:48:44.734Z,101581.00
2023-02-27T21:51:26.717Z,101579.40
2023-02-27T21:54:11.308Z,101580.20
2023-02-27T21:56:46.416Z,101579.80
2023-02-27T21:59:22.016Z,101583.40
2023-02-27T22:01:55.210Z,101579.40
2023-02-27T22:04:28.671Z,101583.80
2023-02-27T22:07:02.036Z,101578.00
2023-02-27T22:09:35.144Z,101587.00
2023-02-27T22:12:09.307Z,101587.40
2023-02-27T22:14:43.402Z,101589.80
2023-02-27T22:17:16.622Z,101588.40
2023-02-27T22:19:49.964Z,101586.40
2023-02-27T22:22:23.166Z,101592.00
2023-02-27T22:24:56.554Z,101592.00
2023-02-27T22:27:31.321Z,101591.20
2023-02-27T22:30:04.489Z,101588.00
2023-02-27T22:32:41.141Z,101588.20
2023-02-27T22:35:14.348Z,101580.40
2023-02-27T22:37:47.596Z,101577.80
2023-02-27T22:40:21.318Z,101578.60
2023-02-27T22:42:54.619Z,101576.20
2023-02-27T22:45:27.845Z,101580.00
2023-02-27T22:48:01.029Z,101585.40
2023-02-27T22:50:34.332Z,101578.40
2023-02-27T22:53:07.449Z,101581.60
2023-02-27T22:55:40.559Z,101574.20
2023-02-27T22:58:13.805Z,101582.40
2023-02-27T23:00:47.242Z,101581.80
2023-02-27T23:03:20.594Z,101578.00
2023-02-27T23:05:53.779Z,101576.60
2023-02-27T23:08:26.973Z,101585.20
2023-02-27T23:11:01.185Z,101581.20
2023-02-27T23:13:34.403Z,101589.40
2023-02-27T23:16:11.833Z,101583.60
2023-02-27T23:18:47.467Z,101590.80
2023-02-27T23:21:24.257Z,101597.40
2023-02-27T23:23:57.791Z,101596.40
2023-02-27T23:26:30.933Z,101597.60
2023-02-27T23:29:03.948Z,101597.40
2023-02-27T23:31:38.154Z,101598.80
2023-02-27T23:34:11.799Z,101599.00
2023-02-27T23:36:45.094Z,101600.80
2023-02-27T23:39:18.174Z,101603.20
2023-02-27T23:41:51.305Z,101599.40
2023-02-27T23:44:24.557Z,101603.40
2023-02-27T23:46:57.740Z,101602.00
2023-02-27T23:49:30.870Z,101608.80
2023-02-27T23:52:03.964Z,101612.00
2023-02-27T23:54:37.709Z,101611.80
2023-02-27T23:57:10.840Z,101614.80
2023-02-27T23:59:43.838Z,101609.00
